Time;durP1;ratioP1;P1;durP2;ratioP2;P2;SDS_P1;SDS_P2;PMS_P1;PMS_P2;Temp;Humidity;BMP_temperature;BMP_pressure;BME280_temperature;BME280_humidity;BME280_pressure;Samples;Min_cycle;Max_cycle;Signal;HPM_P1;HPM_P2
2022/09/17 00:00:45;;;;;;;2.90;1.90;;;11.30;1.00;;;;;;5052107;28;20256;-74
2022/09/17 00:03:11;;;;;;;3.80;1.37;;;11.30;1.00;;;;;;5048056;28;20201;-74
2022/09/17 00:05:36;;;;;;;5.97;2.30;;;11.30;1.00;;;;;;5051044;28;20841;-73
2022/09/17 00:08:04;;;;;;;2.53;2.03;;;11.20;1.00;;;;;;5051280;28;20541;-74
2022/09/17 00:10:31;;;;;;;7.57;2.07;;;11.20;1.00;;;;;;5051558;28;20288;-74
2022/09/17 00:12:56;;;;;;;2.03;1.40;;;11.20;1.00;;;;;;5046320;28;20781;-74
2022/09/17 00:15:22;;;;;;;2.47;1.50;;;11.20;1.00;;;;;;5057501;28;20410;-74
2022/09/17 00:17:53;;;;;;;5.17;1.80;;;11.20;1.00;;;;;;5057718;28;20193;-74
2022/09/17 00:20:20;;;;;;;3.93;2.00;;;11.20;1.00;;;;;;5040272;28;20208;-74
2022/09/17 00:22:46;;;;;;;5.33;3.17;;;11.20;1.00;;;;;;5041742;28;20491;-73
2022/09/17 00:25:11;;;;;;;10.77;4.77;;;11.10;1.00;;;;;;5064297;28;20506;-74
2022/09/17 00:27:37;;;;;;;6.20;3.17;;;11.00;1.00;;;;;;5070342;28;20211;-74
2022/09/17 00:30:03;;;;;;;6.10;2.37;;;11.00;1.00;;;;;;5052515;28;20254;-74
2022/09/17 00:32:29;;;;;;;7.90;2.83;;;11.00;1.00;;;;;;5050634;28;20172;-74
2022/09/17 00:34:55;;;;;;;12.03;2.53;;;11.00;1.00;;;;;;5050910;28;20407;-75
2022/09/17 00:37:21;;;;;;;5.70;2.20;;;11.00;1.00;;;;;;5039076;28;20777;-74
2022/09/17 00:39:46;;;;;;;6.83;1.70;;;11.00;1.00;;;;;;5045097;28;20189;-74
2022/09/17 00:42:13;;;;;;;1.83;1.60;;;11.00;1.00;;;;;;5050288;28;20767;-73
2022/09/17 00:44:51;;;;;;;2.40;1.50;;;10.90;1.00;;;;;;5058377;28;20226;-73
2022/09/17 00:47:38;;;;;;;3.43;1.40;;;10.80;1.00;;;;;;5064723;28;20521;-74
2022/09/17 00:50:21;;;;;;;5.07;1.50;;;10.70;1.00;;;;;;5052695;28;20516;-73
2022/09/17 00:52:51;;;;;;;1.73;1.37;;;10.70;1.00;;;;;;5050538;28;20410;-73
2022/09/17 00:55:27;;;;;;;3.10;1.60;;;10.70;1.00;;;;;;5031470;28;20512;-73
2022/09/17 00:57:59;;;;;;;3.40;1.57;;;10.80;1.00;;;;;;5030138;28;20416;-74
2022/09/17 01:00:25;;;;;;;1.70;1.40;;;10.80;1.00;;;;;;5049519;28;20469;-73
2022/09/17 01:02:53;;;;;;;7.00;1.57;;;10.90;1.00;;;;;;5050247;28;20404;-74
2022/09/17 01:05:40;;;;;;;4.33;1.57;;;10.90;1.00;;;;;;5049933;28;20440;-74
2022/09/17 01:08:18;;;;;;;2.20;1.40;;;11.00;1.00;;;;;;5049829;28;20407;-73
2022/09/17 01:10:51;;;;;;;1.90;1.40;;;11.00;1.00;;;;;;5034744;28;20462;-73
2022/09/17 01:13:29;;;;;;;1.70;1.40;;;11.00;1.00;;;;;;5045937;28;20901;-73
2022/09/17 01:16:20;;;;;;;2.70;1.40;;;11.10;1.00;;;;;;5060720;28;20478;-74
2022/09/17 01:19:03;;;;;;;1.97;1.50;;;11.10;1.00;;;;;;5063786;28;20415;-74
2022/09/17 01:21:41;;;;;;;2.57;1.57;;;11.10;1.00;;;;;;5050216;28;20400;-73
2022/09/17 01:24:31;;;;;;;2.40;1.40;;;11.00;1.00;;;;;;5050108;28;20747;-74
2022/09/17 01:27:16;;;;;;;3.63;1.60;;;10.90;1.00;;;;;;5045698;28;20465;-74
2022/09/17 01:29:54;;;;;;;3.43;1.30;;;10.90;1.00;;;;;;5048393;28;20459;-73
2022/09/17 01:32:37;;;;;;;2.20;1.50;;;10.80;1.00;;;;;;5049978;28;20407;-73
2022/09/17 01:35:23;;;;;;;1.70;1.40;;;10.80;1.00;;;;;;5050143;28;20419;-73
2022/09/17 01:37:49;;;;;;;3.90;1.70;;;10.70;1.00;;;;;;5037840;28;20498;-74
2022/09/17 01:40:24;;;;;;;3.10;1.37;;;10.60;1.00;;;;;;5030410;28;20405;-73
2022/09/17 01:42:57;;;;;;;10.20;1.63;;;10.60;1.00;;;;;;5039235;28;20175;-73
2022/09/17 01:45:33;;;;;;;2.23;1.63;;;10.60;1.00;;;;;;5039883;28;20419;-74
2022/09/17 01:48:10;;;;;;;1.40;1.20;;;10.60;1.00;;;;;;5047775;28;20450;-73
2022/09/17 01:50:41;;;;;;;3.03;1.60;;;10.60;1.00;;;;;;5050215;28;20451;-73
2022/09/17 01:53:10;;;;;;;3.13;1.60;;;10.50;1.00;;;;;;5048058;28;20419;-74
2022/09/17 01:55:38;;;;;;;3.27;1.33;;;10.50;1.00;;;;;;5048391;28;20457;-73
2022/09/17 01:58:07;;;;;;;2.07;1.40;;;10.40;1.00;;;;;;5048790;28;20414;-74
2022/09/17 02:00:33;;;;;;;4.33;1.70;;;10.20;1.00;;;;;;5049527;28;20914;-74
2022/09/17 02:03:20;;;;;;;2.07;1.43;;;10.10;1.00;;;;;;5036648;28;20502;-74
2022/09/17 02:06:00;;;;;;;1.60;1.40;;;10.00;1.00;;;;;;5049978;28;20780;-73
2022/09/17 02:08:34;;;;;;;2.50;1.50;;;10.00;1.00;;;;;;5049588;28;20435;-73
2022/09/17 02:11:08;;;;;;;2.90;1.40;;;10.00;1.00;;;;;;5049579;28;20542;-74
2022/09/17 02:13:41;;;;;;;3.70;1.50;;;10.00;1.00;;;;;;5044883;28;20427;-74
2022/09/17 02:16:16;;;;;;;2.40;1.60;;;10.00;1.80;;;;;;5050632;28;20798;-73
2022/09/17 02:18:52;;;;;;;2.83;1.50;;;10.00;1.00;;;;;;5047207;28;20414;-74
2022/09/17 02:21:53;;;;;;;3.63;1.60;;;9.90;1.00;;;;;;5041502;28;20411;-74
2022/09/17 02:24:25;;;;;;;3.30;1.60;;;9.90;1.00;;;;;;5047621;28;20419;-74
2022/09/17 02:27:00;;;;;;;7.13;1.93;;;9.80;1.00;;;;;;5052951;28;20424;-74
2022/09/17 02:29:33;;;;;;;3.50;1.50;;;9.80;1.00;;;;;;5053101;28;20478;-73
2022/09/17 02:31:59;;;;;;;2.23;1.73;;;9.80;1.00;;;;;;5043790;28;20935;-73
2022/09/17 02:34:27;;;;;;;3.97;1.70;;;9.70;1.00;;;;;;5033492;28;20494;-73
2022/09/17 02:36:53;;;;;;;3.27;1.60;;;9.70;1.00;;;;;;5048690;28;20295;-73
2022/09/17 02:39:19;;;;;;;3.93;1.47;;;9.70;1.00;;;;;;5053357;28;20778;-74
2022/09/17 02:42:16;;;;;;;6.03;1.70;;;9.60;1.00;;;;;;5045756;28;20420;-73
2022/09/17 02:45:09;;;;;;;1.87;1.50;;;9.60;1.00;;;;;;5055340;28;20176;-73
2022/09/17 02:47:35;;;;;;;2.27;1.50;;;9.60;1.00;;;;;;5069576;28;20544;-73
2022/09/17 02:50:23;;;;;;;3.93;1.60;;;9.50;1.00;;;;;;5072995;28;21038;-73
2022/09/17 02:53:16;;;;;;;3.47;1.60;;;9.50;1.00;;;;;;5048872;28;20186;-74
2022/09/17 02:55:58;;;;;;;2.50;1.40;;;9.50;1.00;;;;;;5033280;28;20769;-73
2022/09/17 02:58:29;;;;;;;2.83;1.40;;;9.50;1.00;;;;;;5031813;28;20405;-74
2022/09/17 03:01:00;;;;;;;2.50;1.30;;;9.40;1.60;;;;;;5033282;28;20416;-74
2022/09/17 03:03:40;;;;;;;1.97;1.30;;;9.40;3.40;;;;;;5031684;28;20436;-73
2022/09/17 03:06:05;;;;;;;2.53;1.63;;;9.40;1.40;;;;;;5032972;28;20424;-74
2022/09/17 03:08:35;;;;;;;2.97;1.60;;;9.40;1.00;;;;;;5032459;28;20420;-74
2022/09/17 03:11:01;;;;;;;1.77;1.40;;;9.40;1.00;;;;;;5044566;28;20193;-74
2022/09/17 03:13:26;;;;;;;9.23;1.60;;;9.30;1.60;;;;;;5046609;28;21001;-74
2022/09/17 03:15:52;;;;;;;2.30;1.60;;;9.20;3.30;;;;;;5062169;28;20537;-74
2022/09/17 03:18:17;;;;;;;2.03;1.30;;;9.20;1.00;;;;;;5072244;28;20187;-74
2022/09/17 03:20:43;;;;;;;1.60;1.40;;;9.10;1.00;;;;;;5072617;28;20222;-74
2022/09/17 03:23:08;;;;;;;3.83;1.70;;;9.10;1.00;;;;;;5052249;28;20177;-74
2022/09/17 03:25:34;;;;;;;5.17;2.00;;;9.00;1.00;;;;;;5052962;28;20180;-74
2022/09/17 03:27:59;;;;;;;2.63;1.50;;;9.00;2.10;;;;;;5034478;28;20277;-74
2022/09/17 03:30:25;;;;;;;4.40;1.83;;;9.00;2.10;;;;;;5040312;28;20212;-74
2022/09/17 03:32:50;;;;;;;2.63;1.40;;;8.90;2.90;;;;;;5051949;28;20200;-74
2022/09/17 03:35:16;;;;;;;6.90;2.47;;;9.00;2.70;;;;;;5052172;28;20165;-74
2022/09/17 03:37:42;;;;;;;5.57;1.50;;;8.90;3.60;;;;;;5052011;28;20185;-74
2022/09/17 03:40:08;;;;;;;1.70;1.60;;;9.00;2.50;;;;;;5032432;28;20201;-74
2022/09/17 03:42:33;;;;;;;2.17;1.60;;;8.90;2.50;;;;;;5039100;28;20200;-73
2022/09/17 03:44:59;;;;;;;3.87;1.57;;;8.90;1.80;;;;;;5048959;28;20439;-74
2022/09/17 03:47:24;;;;;;;5.00;1.60;;;8.80;1.80;;;;;;5055318;28;20284;-74
2022/09/17 03:49:51;;;;;;;1.50;1.40;;;8.80;3.20;;;;;;5051118;28;20250;-73
2022/09/17 03:52:16;;;;;;;9.47;1.67;;;8.80;5.10;;;;;;5051527;28;20161;-73
2022/09/17 03:54:42;;;;;;;2.20;2.00;;;8.80;7.10;;;;;;5051792;28;20964;-74
2022/09/17 03:57:07;;;;;;;2.60;1.77;;;9.00;4.80;;;;;;5049426;28;20211;-74
2022/09/17 03:59:33;;;;;;;2.93;1.60;;;9.20;3.80;;;;;;5050560;28;20188;-74
2022/09/17 04:01:59;;;;;;;3.90;1.40;;;9.40;2.20;;;;;;5048021;28;20173;-73
2022/09/17 04:04:24;;;;;;;3.30;1.97;;;9.50;1.00;;;;;;5050633;28;20200;-74
2022/09/17 04:06:50;;;;;;;3.20;2.10;;;9.60;1.00;;;;;;5051418;28;20189;-74
2022/09/17 04:09:15;;;;;;;2.73;2.10;;;9.70;1.00;;;;;;5050564;28;20224;-74
2022/09/17 04:11:41;;;;;;;4.77;2.00;;;9.80;1.00;;;;;;5050750;28;20240;-73
2022/09/17 04:14:06;;;;;;;8.30;1.80;;;9.80;1.00;;;;;;5054898;28;20176;-73
2022/09/17 04:16:32;;;;;;;3.67;1.80;;;9.80;1.00;;;;;;5062995;28;20548;-73
2022/09/17 04:18:57;;;;;;;3.33;1.60;;;9.90;1.00;;;;;;5046418;28;20193;-73
2022/09/17 04:21:23;;;;;;;7.23;1.63;;;9.90;1.00;;;;;;5050838;28;20176;-74
2022/09/17 04:23:49;;;;;;;6.20;1.90;;;9.90;1.00;;;;;;5050641;28;20205;-74
2022/09/17 04:26:15;;;;;;;3.07;1.93;;;9.90;1.00;;;;;;5045310;28;20212;-73
2022/09/17 04:28:40;;;;;;;1.90;1.50;;;9.90;1.00;;;;;;5029982;28;20926;-74
2022/09/17 04:31:06;;;;;;;3.33;2.07;;;9.90;1.00;;;;;;5031073;28;20517;-73
2022/09/17 04:33:31;;;;;;;2.83;1.70;;;9.90;1.00;;;;;;5030873;28;20392;-74
2022/09/17 04:35:57;;;;;;;3.03;1.90;;;10.00;1.00;;;;;;5047294;28;20208;-74
2022/09/17 04:38:22;;;;;;;3.57;2.07;;;10.00;1.00;;;;;;5036459;28;20169;-73
2022/09/17 04:40:48;;;;;;;4.67;1.90;;;10.00;1.00;;;;;;5031040;28;20603;-74
2022/09/17 04:43:14;;;;;;;9.40;2.03;;;10.10;1.00;;;;;;5031977;28;20180;-73
2022/09/17 04:45:40;;;;;;;2.00;1.60;;;10.10;1.00;;;;;;5059059;28;20807;-73
2022/09/17 04:48:05;;;;;;;2.87;2.50;;;10.10;1.00;;;;;;5070480;28;20631;-73
2022/09/17 04:50:31;;;;;;;4.50;1.70;;;10.20;1.00;;;;;;5070791;28;20211;-73
2022/09/17 04:52:57;;;;;;;2.53;1.77;;;10.30;1.00;;;;;;5035963;28;20182;-74
2022/09/17 04:55:22;;;;;;;2.23;1.80;;;10.40;1.00;;;;;;5032883;28;20197;-73
2022/09/17 04:57:50;;;;;;;6.53;2.50;;;10.40;1.00;;;;;;5048707;28;20189;-74
2022/09/17 05:00:17;;;;;;;3.60;1.90;;;10.40;1.00;;;;;;5050078;28;20508;-74
2022/09/17 05:02:45;;;;;;;3.03;1.90;;;10.50;1.00;;;;;;5050190;28;20411;-73
2022/09/17 05:05:11;;;;;;;4.10;1.80;;;10.50;1.00;;;;;;5049987;28;20416;-74
2022/09/17 05:07:41;;;;;;;4.27;2.50;;;10.50;1.00;;;;;;5030332;28;20595;-74
2022/09/17 05:10:07;;;;;;;3.93;2.17;;;10.60;1.00;;;;;;5047229;28;20196;-74
2022/09/17 05:12:33;;;;;;;5.13;2.13;;;10.70;1.00;;;;;;5049173;28;20404;-74
2022/09/17 05:14:58;;;;;;;5.57;2.07;;;10.60;1.00;;;;;;5052795;28;20453;-74
2022/09/17 05:17:24;;;;;;;5.80;2.30;;;10.70;1.00;;;;;;5064650;28;20196;-74
2022/09/17 05:19:50;;;;;;;2.97;2.30;;;10.70;1.00;;;;;;5070254;28;20303;-74
2022/09/17 05:22:15;;;;;;;4.90;2.40;;;10.70;1.00;;;;;;5069993;28;20161;-74
2022/09/17 05:24:41;;;;;;;4.27;2.53;;;10.60;1.00;;;;;;5070663;28;20698;-74
2022/09/17 05:27:07;;;;;;;7.93;2.70;;;10.40;1.00;;;;;;5032155;28;20212;-73
2022/09/17 05:29:33;;;;;;;3.30;2.17;;;10.30;3.30;;;;;;5029785;28;20419;-73
2022/09/17 05:31:59;;;;;;;8.80;2.97;;;10.30;9.30;;;;;;5028562;28;20412;-74
2022/09/17 05:34:24;;;;;;;10.60;3.40;;;10.30;9.00;;;;;;5039270;28;20173;-74
2022/09/17 05:36:50;;;;;;;8.03;2.80;;;10.30;9.70;;;;;;5049404;28;20478;-74
2022/09/17 05:39:16;;;;;;;12.90;2.67;;;10.30;14.10;;;;;;5049791;28;20648;-75
2022/09/17 05:41:42;;;;;;;7.53;2.80;;;10.20;14.70;;;;;;5035666;28;20185;-74
2022/09/17 05:44:07;;;;;;;4.37;2.70;;;10.20;15.50;;;;;;5039097;28;20256;-74
2022/09/17 05:46:32;;;;;;;5.67;2.47;;;10.10;21.00;;;;;;5058108;28;20224;-74
2022/09/17 05:48:58;;;;;;;3.33;2.47;;;10.10;23.10;;;;;;5044698;28;20185;-74
2022/09/17 05:51:24;;;;;;;7.03;2.70;;;10.10;24.30;;;;;;5033072;28;20166;-74
2022/09/17 05:53:49;;;;;;;4.33;2.90;;;10.10;29.10;;;;;;5033729;28;20177;-74
2022/09/17 05:56:15;;;;;;;6.37;2.80;;;10.10;28.60;;;;;;5034126;28;20264;-74
2022/09/17 05:58:40;;;;;;;3.77;2.67;;;10.00;33.50;;;;;;5033876;28;20261;-74
2022/09/17 06:01:06;;;;;;;6.70;3.07;;;10.10;37.90;;;;;;5050957;28;20181;-74
2022/09/17 06:03:32;;;;;;;7.27;3.40;;;10.10;40.60;;;;;;5053200;28;20169;-74
2022/09/17 06:05:59;;;;;;;5.57;2.93;;;10.20;38.20;;;;;;5052848;28;20189;-74
2022/09/17 06:08:26;;;;;;;8.20;2.93;;;10.30;38.10;;;;;;5052855;28;20199;-74
2022/09/17 06:10:52;;;;;;;6.00;3.47;;;10.40;38.40;;;;;;5053738;28;20512;-76
2022/09/17 06:13:18;;;;;;;3.83;2.73;;;10.40;38.20;;;;;;5052326;28;20423;-74
2022/09/17 06:15:52;;;;;;;4.13;2.97;;;10.40;38.30;;;;;;5063095;28;20158;-74
2022/09/17 06:18:18;;;;;;;7.17;3.30;;;10.30;38.20;;;;;;5035381;28;20185;-74
2022/09/17 06:20:57;;;;;;;6.73;3.57;;;10.40;38.40;;;;;;5034852;28;20475;-74
2022/09/17 06:23:24;;;;;;;6.73;3.20;;;11.00;38.70;;;;;;5052630;28;20477;-74
2022/09/17 06:25:52;;;;;;;10.27;3.07;;;10.40;38.30;;;;;;5050276;28;20836;-74
2022/09/17 06:28:17;;;;;;;5.93;3.60;;;10.40;38.20;;;;;;5032279;28;20436;-74
2022/09/17 06:30:43;;;;;;;10.63;3.30;;;10.40;38.20;;;;;;5033546;28;20452;-74
2022/09/17 06:33:08;;;;;;;11.13;3.87;;;10.40;38.20;;;;;;5033303;28;20177;-74
2022/09/17 06:35:34;;;;;;;8.87;3.30;;;10.50;38.30;;;;;;5032096;28;20178;-74
2022/09/17 06:37:59;;;;;;;8.87;3.50;;;10.50;38.30;;;;;;5050538;28;20166;-74
2022/09/17 06:40:25;;;;;;;7.77;3.43;;;10.60;38.40;;;;;;5053350;28;20538;-74
2022/09/17 06:42:56;;;;;;;5.20;3.20;;;10.70;38.50;;;;;;5052772;28;20227;-73
2022/09/17 06:45:22;;;;;;;6.70;3.20;;;10.80;38.60;;;;;;5063042;28;20188;-74
2022/09/17 06:47:47;;;;;;;6.87;3.07;;;10.90;38.70;;;;;;5053761;28;20435;-74
2022/09/17 06:50:13;;;;;;;4.40;2.93;;;11.00;38.50;;;;;;5050728;28;20219;-74
2022/09/17 06:52:38;;;;;;;12.97;3.20;;;11.10;32.00;;;;;;5033353;28;20459;-74
2022/09/17 06:55:04;;;;;;;7.93;3.30;;;11.00;28.70;;;;;;5053178;28;20902;-74
2022/09/17 06:57:30;;;;;;;7.43;3.60;;;11.10;29.60;;;;;;5051142;28;20193;-74
2022/09/17 06:59:55;;;;;;;8.80;2.93;;;11.20;38.90;;;;;;5052304;28;20655;-74
2022/09/17 07:02:21;;;;;;;5.83;3.20;;;11.30;26.00;;;;;;5050305;28;20180;-74
2022/09/17 07:04:46;;;;;;;6.20;3.33;;;11.20;22.80;;;;;;5034304;28;20195;-74
2022/09/17 07:07:11;;;;;;;6.40;3.60;;;11.20;24.70;;;;;;5034025;28;20239;-74
2022/09/17 07:09:37;;;;;;;5.33;3.33;;;11.40;24.20;;;;;;5052204;28;20201;-74
2022/09/17 07:12:06;;;;;;;11.23;3.63;;;11.50;24.30;;;;;;5051424;28;20731;-75
2022/09/17 07:14:32;;;;;;;6.50;3.70;;;11.50;20.90;;;;;;5054909;28;20176;-75
2022/09/17 07:16:58;;;;;;;6.73;3.40;;;11.60;21.80;;;;;;5060122;28;20446;-77
2022/09/17 07:19:24;;;;;;;5.83;4.40;;;11.40;22.40;;;;;;5049510;28;20189;-75
2022/09/17 07:21:49;;;;;;;8.67;3.70;;;11.50;21.90;;;;;;5049547;28;20420;-75
2022/09/17 07:24:15;;;;;;;9.00;3.80;;;11.50;22.70;;;;;;5050335;28;20190;-75
2022/09/17 07:26:40;;;;;;;12.57;4.17;;;11.60;19.40;;;;;;5046348;28;20197;-74
2022/09/17 07:29:06;;;;;;;6.40;3.67;;;11.60;19.00;;;;;;5044718;28;20204;-75
2022/09/17 07:31:32;;;;;;;4.50;3.60;;;11.70;18.20;;;;;;5045872;28;20169;-74
2022/09/17 07:33:58;;;;;;;9.10;4.00;;;11.80;18.70;;;;;;5050583;28;20735;-74
2022/09/17 07:36:23;;;;;;;8.70;3.90;;;11.90;22.70;;;;;;5032229;28;20182;-75
2022/09/17 07:38:49;;;;;;;9.37;2.97;;;12.00;19.90;;;;;;5031913;28;20817;-75
2022/09/17 07:41:16;;;;;;;5.37;3.33;;;12.00;16.10;;;;;;5034039;28;20197;-74
2022/09/17 07:43:42;;;;;;;6.57;3.07;;;12.10;15.30;;;;;;5045043;28;20188;-75
2022/09/17 07:46:18;;;;;;;6.50;3.30;;;12.20;11.50;;;;;;5059998;28;20878;-75
2022/09/17 07:48:45;;;;;;;5.00;2.83;;;12.40;8.30;;;;;;5051559;28;20435;-75
2022/09/17 07:51:20;;;;;;;8.97;3.30;;;12.60;5.70;;;;;;5051856;28;20485;-74
2022/09/17 07:53:46;;;;;;;5.47;3.20;;;12.80;1.80;;;;;;5051477;28;20834;-74
2022/09/17 07:56:12;;;;;;;6.87;3.10;;;13.10;2.80;;;;;;5052839;28;20428;-81
2022/09/17 07:58:38;;;;;;;8.27;3.40;;;13.40;1.00;;;;;;5046608;28;20448;-80
2022/09/17 08:01:08;;;;;;;5.70;2.70;;;13.70;1.00;;;;;;5033159;28;20196;-78
2022/09/17 08:03:34;;;;;;;5.20;2.50;;;13.90;1.00;;;;;;5032719;28;20201;-79
2022/09/17 08:06:04;;;;;;;8.10;3.67;;;14.00;1.00;;;;;;5052098;28;20478;-79
2022/09/17 08:08:31;;;;;;;9.67;2.60;;;14.00;1.00;;;;;;5040634;28;20951;-80
2022/09/17 08:11:08;;;;;;;7.90;3.17;;;14.20;1.00;;;;;;5052608;28;20451;-80
2022/09/17 08:13:33;;;;;;;6.03;2.27;;;14.30;1.00;;;;;;5050602;28;20846;-73
2022/09/17 08:16:01;;;;;;;6.37;2.60;;;14.40;1.00;;;;;;5052936;28;20461;-74
2022/09/17 08:18:27;;;;;;;3.93;2.33;;;14.60;1.00;;;;;;5035625;28;20725;-73
2022/09/17 08:20:59;;;;;;;6.83;2.67;;;14.70;1.00;;;;;;5045080;28;20419;-73
2022/09/17 08:23:29;;;;;;;7.43;3.00;;;14.80;1.00;;;;;;5049124;28;20416;-73
2022/09/17 08:25:57;;;;;;;3.30;2.20;;;14.70;1.00;;;;;;5033028;28;20851;-74
2022/09/17 08:28:24;;;;;;;11.53;3.50;;;14.70;1.00;;;;;;5030503;28;20894;-74
2022/09/17 08:30:51;;;;;;;5.17;2.67;;;14.60;1.00;;;;;;5039387;28;20501;-74
2022/09/17 08:33:17;;;;;;;5.33;2.40;;;14.70;1.00;;;;;;5032449;28;20428;-74
2022/09/17 08:35:50;;;;;;;6.23;2.33;;;14.70;1.00;;;;;;5030411;28;20416;-74
2022/09/17 08:38:16;;;;;;;6.53;2.23;;;14.70;1.00;;;;;;5031130;28;20182;-74
2022/09/17 08:41:10;;;;;;;7.63;2.10;;;15.10;1.00;;;;;;5040318;28;20447;-74
2022/09/17 08:43:40;;;;;;;4.40;2.20;;;15.20;1.00;;;;;;5031232;28;20182;-74
2022/09/17 08:46:08;;;;;;;9.20;2.47;;;15.50;1.00;;;;;;5062054;28;20431;-74
2022/09/17 08:48:50;;;;;;;9.17;2.10;;;16.60;1.00;;;;;;5040728;28;20426;-74
2022/09/17 08:51:28;;;;;;;6.70;1.73;;;17.70;1.00;;;;;;5034460;28;20447;-74
2022/09/17 08:54:08;;;;;;;5.30;2.20;;;17.50;1.00;;;;;;5042757;28;20810;-75
2022/09/17 08:56:36;;;;;;;5.83;2.73;;;17.10;1.00;;;;;;5047867;28;20439;-74
2022/09/17 08:59:28;;;;;;;6.23;2.33;;;16.70;1.00;;;;;;5048821;28;20826;-74
2022/09/17 09:02:03;;;;;;;8.10;1.97;;;16.50;1.00;;;;;;5038500;28;20416;-74
2022/09/17 09:04:28;;;;;;;10.80;1.93;;;16.30;1.00;;;;;;5048091;28;20415;-75
2022/09/17 09:07:01;;;;;;;6.67;1.80;;;16.20;1.00;;;;;;5041625;28;20447;-74
2022/09/17 09:09:34;;;;;;;6.40;1.80;;;16.30;1.00;;;;;;5046622;28;20702;-74
2022/09/17 09:12:04;;;;;;;5.73;1.90;;;16.50;1.00;;;;;;5038520;28;20503;-75
2022/09/17 09:14:47;;;;;;;4.33;1.80;;;17.50;1.00;;;;;;5038579;28;20741;-74
2022/09/17 09:17:16;;;;;;;25.37;2.90;;;20.70;1.00;;;;;;5038901;28;20474;-74
2022/09/17 09:19:43;;;;;;;5.57;2.10;;;22.20;1.00;;;;;;5040617;28;20478;-74
2022/09/17 09:22:37;;;;;;;6.50;2.20;;;21.10;1.00;;;;;;5041685;28;20870;-74
2022/09/17 09:25:19;;;;;;;8.93;2.00;;;19.90;1.00;;;;;;5042220;28;20474;-74
2022/09/17 09:28:16;;;;;;;7.50;2.13;;;19.10;1.00;;;;;;5040807;28;20974;-74
2022/09/17 09:31:20;;;;;;;11.67;2.37;;;18.70;1.00;;;;;;5041273;28;20463;-74
2022/09/17 09:33:47;;;;;;;10.73;2.37;;;19.00;1.00;;;;;;5034158;28;20426;-74
2022/09/17 09:36:20;;;;;;;5.60;1.83;;;21.50;1.00;;;;;;5030295;28;20761;-75
2022/09/17 09:38:49;;;;;;;3.27;1.77;;;22.70;1.00;;;;;;5043658;28;20423;-75
2022/09/17 09:41:31;;;;;;;4.40;1.67;;;22.00;1.00;;;;;;5047229;28;20833;-75
2022/09/17 09:44:04;;;;;;;6.10;2.07;;;20.50;1.00;;;;;;5044632;28;20412;-75
2022/09/17 09:46:59;;;;;;;6.77;2.30;;;19.40;1.00;;;;;;5043403;28;20443;-74
2022/09/17 09:49:45;;;;;;;5.87;1.70;;;19.00;1.00;;;;;;5044231;28;21001;-74
2022/09/17 09:52:42;;;;;;;5.17;1.90;;;20.60;1.00;;;;;;5036257;28;20440;-74
2022/09/17 09:55:20;;;;;;;4.83;1.70;;;21.70;1.00;;;;;;5036544;28;20416;-74
2022/09/17 09:58:01;;;;;;;4.80;1.50;;;21.90;1.00;;;;;;5035068;28;20966;-74
2022/09/17 10:00:34;;;;;;;8.93;2.33;;;22.20;1.00;;;;;;5036385;28;20456;-74
2022/09/17 10:03:14;;;;;;;5.53;1.80;;;23.10;1.00;;;;;;5043181;28;20971;-75
2022/09/17 10:05:52;;;;;;;5.30;2.07;;;24.70;1.00;;;;;;5047904;28;21005;-74
2022/09/17 10:08:17;;;;;;;4.40;1.70;;;26.30;1.00;;;;;;5045044;28;21227;-74
2022/09/17 10:11:04;;;;;;;4.07;1.60;;;27.00;1.00;;;;;;5043411;28;20451;-75
2022/09/17 10:13:35;;;;;;;6.53;2.10;;;27.80;1.00;;;;;;5042515;28;20252;-75
2022/09/17 10:16:28;;;;;;;7.07;2.10;;;29.10;1.00;;;;;;5043430;28;21010;-75
2022/09/17 10:19:02;;;;;;;5.43;1.90;;;29.80;1.00;;;;;;5041675;28;20192;-74
2022/09/17 10:21:40;;;;;;;6.13;1.70;;;28.60;1.00;;;;;;5042413;28;20181;-74
2022/09/17 10:24:26;;;;;;;6.47;1.67;;;26.20;1.00;;;;;;5036398;28;20225;-75
2022/09/17 10:27:01;;;;;;;3.77;1.70;;;24.60;1.00;;;;;;5041535;28;21039;-74
2022/09/17 10:29:27;;;;;;;4.70;1.33;;;24.00;1.00;;;;;;5039658;28;20508;-74
2022/09/17 10:31:55;;;;;;;5.03;1.90;;;23.30;1.00;;;;;;5038353;28;20415;-74
2022/09/17 10:34:29;;;;;;;5.37;1.67;;;22.70;1.00;;;;;;5029795;28;20177;-75
2022/09/17 10:36:56;;;;;;;8.50;2.20;;;23.10;1.00;;;;;;5044417;28;20949;-74
2022/09/17 10:39:27;;;;;;;10.43;2.17;;;22.90;1.00;;;;;;5048453;28;20470;-74
2022/09/17 10:41:56;;;;;;;5.20;1.37;;;22.20;1.00;;;;;;5050323;28;20498;-75
2022/09/17 10:44:24;;;;;;;10.43;1.90;;;21.60;1.00;;;;;;5038418;28;20473;-74
2022/09/17 10:46:54;;;;;;;5.67;2.00;;;21.30;1.00;;;;;;5042369;28;20450;-74
2022/09/17 10:49:26;;;;;;;9.40;2.10;;;20.60;1.00;;;;;;5037183;28;20456;-74
2022/09/17 10:52:02;;;;;;;5.27;1.73;;;20.00;1.00;;;;;;5047662;28;20510;-74
2022/09/17 10:54:51;;;;;;;9.00;1.83;;;19.70;1.00;;;;;;5039077;28;20511;-74
2022/09/17 10:57:55;;;;;;;4.60;1.57;;;20.40;1.00;;;;;;5041827;28;20662;-74
2022/09/17 11:00:22;;;;;;;5.33;1.70;;;22.50;1.00;;;;;;5042319;28;20925;-74
2022/09/17 11:02:54;;;;;;;5.10;1.40;;;25.50;1.00;;;;;;5047500;28;20458;-74
2022/09/17 11:05:22;;;;;;;7.20;1.73;;;27.40;1.00;;;;;;5051977;28;20415;-75
2022/09/17 11:08:08;;;;;;;6.03;2.30;;;27.90;1.00;;;;;;5046926;28;20465;-75
2022/09/17 11:10:52;;;;;;;8.30;1.60;;;26.20;1.00;;;;;;5051477;28;20816;-74
2022/09/17 11:13:26;;;;;;;4.50;1.70;;;24.50;1.00;;;;;;5037659;28;20953;-74
2022/09/17 11:15:54;;;;;;;6.20;2.07;;;23.50;1.00;;;;;;5050720;28;20418;-75
2022/09/17 11:18:41;;;;;;;5.63;2.00;;;22.70;1.00;;;;;;5051522;28;20509;-74
2022/09/17 11:21:15;;;;;;;6.90;1.67;;;21.60;1.00;;;;;;5043938;28;20427;-75
2022/09/17 11:24:15;;;;;;;3.87;1.50;;;21.20;1.00;;;;;;5035667;28;20440;-74
2022/09/17 11:26:59;;;;;;;7.03;2.00;;;20.90;1.00;;;;;;5047691;28;20447;-74
2022/09/17 11:29:37;;;;;;;5.23;1.80;;;20.50;1.00;;;;;;5045119;28;20456;-74
2022/09/17 11:32:33;;;;;;;3.27;1.40;;;20.10;1.00;;;;;;5031953;28;20581;-74
2022/09/17 11:35:18;;;;;;;5.20;1.27;;;20.30;1.00;;;;;;5044331;28;20838;-74
2022/09/17 11:37:50;;;;;;;3.30;1.17;;;20.50;1.00;;;;;;5049885;28;20436;-74
2022/09/17 11:40:41;;;;;;;4.30;1.43;;;20.60;1.00;;;;;;5033711;28;20438;-74
2022/09/17 11:43:23;;;;;;;2.97;1.03;;;20.20;1.00;;;;;;5042189;28;20810;-74
2022/09/17 11:45:58;;;;;;;4.83;1.40;;;19.70;1.00;;;;;;5035664;28;20472;-74
2022/09/17 11:48:46;;;;;;;8.07;1.13;;;20.00;1.00;;;;;;5042270;28;20501;-74
2022/09/17 11:51:20;;;;;;;3.07;1.10;;;20.70;1.00;;;;;;5040112;28;21190;-74
2022/09/17 11:54:01;;;;;;;6.23;1.20;;;21.50;1.00;;;;;;5038907;28;20436;-74
2022/09/17 11:56:43;;;;;;;2.10;1.17;;;21.50;1.00;;;;;;5031063;28;20530;-74
2022/09/17 11:59:38;;;;;;;3.90;1.47;;;21.10;1.00;;;;;;5038223;28;20452;-74
2022/09/17 12:02:18;;;;;;;3.83;2.20;;;20.90;1.00;;;;;;5031318;28;20509;-74
2022/09/17 12:04:52;;;;;;;3.93;1.47;;;21.00;1.00;;;;;;5045682;28;20443;-74
2022/09/17 12:07:20;;;;;;;6.20;1.83;;;20.50;1.00;;;;;;5047692;28;20461;-74
2022/09/17 12:09:52;;;;;;;4.20;1.40;;;20.20;1.00;;;;;;5047796;28;20454;-74
2022/09/17 12:12:22;;;;;;;3.73;1.40;;;20.10;1.00;;;;;;5029690;28;20427;-74
2022/09/17 12:14:53;;;;;;;4.03;1.10;;;20.50;1.00;;;;;;5043026;28;20491;-74
2022/09/17 12:17:32;;;;;;;4.90;1.60;;;21.00;1.00;;;;;;5045244;28;20599;-74
2022/09/17 12:20:05;;;;;;;3.07;1.40;;;21.80;1.00;;;;;;5048386;28;20482;-74
2022/09/17 12:22:35;;;;;;;3.43;1.30;;;23.10;1.00;;;;;;5042927;28;20781;-75
2022/09/17 12:25:01;;;;;;;3.13;1.23;;;24.20;1.00;;;;;;5040941;28;20488;-75
2022/09/17 12:27:58;;;;;;;3.90;1.37;;;23.80;1.00;;;;;;5041862;28;20493;-74
2022/09/17 12:30:33;;;;;;;3.37;1.20;;;22.70;1.00;;;;;;5043602;28;20550;-74
2022/09/17 12:33:26;;;;;;;7.23;1.50;;;22.00;1.00;;;;;;5049745;28;20407;-74
2022/09/17 12:36:18;;;;;;;6.37;1.47;;;21.80;1.00;;;;;;5047630;28;20432;-74
2022/09/17 12:39:08;;;;;;;4.50;1.23;;;23.80;1.00;;;;;;5049551;28;20942;-75
2022/09/17 12:41:42;;;;;;;4.13;1.37;;;26.30;1.00;;;;;;5046697;28;20584;-75
2022/09/17 12:44:16;;;;;;;5.67;1.60;;;27.60;1.00;;;;;;5041927;28;20409;-75
2022/09/17 12:46:48;;;;;;;6.43;1.40;;;26.70;1.00;;;;;;5049850;28;20442;-74
2022/09/17 12:49:42;;;;;;;3.30;1.17;;;25.80;1.00;;;;;;5036375;28;20430;-75
2022/09/17 12:52:10;;;;;;;9.60;1.30;;;26.60;1.00;;;;;;5040898;28;20457;-75
2022/09/17 12:55:07;;;;;;;9.93;1.63;;;28.00;1.00;;;;;;5046683;28;20399;-75
2022/09/17 12:57:41;;;;;;;3.33;1.20;;;28.60;1.00;;;;;;5042880;28;20496;-75
2022/09/17 13:00:12;;;;;;;3.93;1.00;;;29.10;1.00;;;;;;5032303;28;20785;-75
2022/09/17 13:03:06;;;;;;;4.07;1.60;;;29.20;1.00;;;;;;5049235;28;20183;-75
2022/09/17 13:05:57;;;;;;;3.20;1.40;;;29.70;1.00;;;;;;5039783;28;20195;-75
2022/09/17 13:08:29;;;;;;;2.47;1.20;;;30.50;1.00;;;;;;5043895;28;20176;-75
2022/09/17 13:11:15;;;;;;;3.43;1.30;;;30.50;1.00;;;;;;5043677;28;20212;-75
2022/09/17 13:13:48;;;;;;;4.77;1.40;;;30.40;1.00;;;;;;5041798;28;20184;-75
2022/09/17 13:16:59;;;;;;;5.07;1.20;;;30.80;1.00;;;;;;5049219;28;20195;-75
2022/09/17 13:19:40;;;;;;;3.87;1.20;;;30.20;1.00;;;;;;5037905;28;20187;-75
2022/09/17 13:22:15;;;;;;;2.33;1.00;;;30.30;1.00;;;;;;5048787;28;20169;-74